createdAt,value
2018-01-22T00:00:31.822Z,89.47
2018-01-22T00:01:36.038Z,89.47
2018-01-22T00:02:40.200Z,89.39
2018-01-22T00:03:44.433Z,89.30
2018-01-22T00:04:48.645Z,89.43
2018-01-22T00:05:53.069Z,89.41
2018-01-22T00:06:57.201Z,89.39
2018-01-22T00:08:01.383Z,89.42
2018-01-22T00:09:05.905Z,89.68
2018-01-22T00:10:10.049Z,89.83
2018-01-22T00:11:14.148Z,90.05
2018-01-22T00:12:18.581Z,90.10
2018-01-22T00:13:22.768Z,90.22
2018-01-22T00:14:26.904Z,90.23
2018-01-22T00:15:31.329Z,90.29
2018-01-22T00:16:35.918Z,90.54
2018-01-22T00:17:40.052Z,90.55
2018-01-22T00:18:44.495Z,90.46
2018-01-22T00:19:48.576Z,90.45
2018-01-22T00:20:52.789Z,90.38
2018-01-22T00:21:56.862Z,90.34
2018-01-22T00:23:01.121Z,90.25
2018-01-22T00:24:05.325Z,90.18
2018-01-22T00:25:09.511Z,90.16
2018-01-22T00:26:13.678Z,89.71
2018-01-22T00:27:17.801Z,89.60
2018-01-22T00:28:22.909Z,89.53
2018-01-22T00:29:28.351Z,89.70
2018-01-22T00:30:33.794Z,89.59
2018-01-22T00:31:38.212Z,89.57
2018-01-22T00:32:42.553Z,89.52
2018-01-22T00:33:46.732Z,89.38
2018-01-22T00:34:50.883Z,89.32
2018-01-22T00:35:55.023Z,89.28
2018-01-22T00:36:59.104Z,89.02
2018-01-22T00:38:03.660Z,88.87
2018-01-22T00:39:07.798Z,88.67
2018-01-22T00:40:11.977Z,88.78
2018-01-22T00:41:16.183Z,88.94
2018-01-22T00:42:21.082Z,88.83
2018-01-22T00:43:25.256Z,89.02
2018-01-22T00:44:29.692Z,89.06
2018-01-22T00:45:34.065Z,89.08
2018-01-22T00:46:38.168Z,89.12
2018-01-22T00:47:42.384Z,89.04
2018-01-22T00:48:46.492Z,88.79
2018-01-22T00:49:50.735Z,88.82
2018-01-22T00:50:54.887Z,88.93
2018-01-22T00:51:59.065Z,88.96
2018-01-22T00:53:03.621Z,88.98
2018-01-22T00:54:07.784Z,89.03
2018-01-22T00:55:11.871Z,88.74
2018-01-22T00:56:15.957Z,88.77
2018-01-22T00:57:21.063Z,88.66
2018-01-22T00:58:25.875Z,88.67
2018-01-22T00:59:30.116Z,88.54
2018-01-22T01:00:34.543Z,88.41
2018-01-22T01:01:38.636Z,88.70
2018-01-22T01:02:42.827Z,88.43
2018-01-22T01:03:47.229Z,88.60
2018-01-22T01:04:51.391Z,88.85
2018-01-22T01:05:55.511Z,88.64
2018-01-22T01:06:59.595Z,88.73
2018-01-22T01:08:03.766Z,88.79
2018-01-22T01:09:07.936Z,88.61
2018-01-22T01:10:12.325Z,88.60
2018-01-22T01:11:16.442Z,88.52
2018-01-22T01:12:20.532Z,88.70
2018-01-22T01:13:25.220Z,88.70
2018-01-22T01:14:29.388Z,88.07
2018-01-22T01:15:33.788Z,88.16
2018-01-22T01:16:38.721Z,87.99
2018-01-22T01:17:42.835Z,87.90
2018-01-22T01:18:46.954Z,87.77
2018-01-22T01:19:51.132Z,87.65
2018-01-22T01:20:55.308Z,87.87
2018-01-22T01:21:59.781Z,87.63
2018-01-22T01:23:03.892Z,87.70
2018-01-22T01:24:07.980Z,87.65
2018-01-22T01:25:12.211Z,87.73
2018-01-22T01:26:16.381Z,87.83
2018-01-22T01:27:20.482Z,87.58
2018-01-22T01:28:24.912Z,87.32
2018-01-22T01:29:29.042Z,87.43
2018-01-22T01:30:33.590Z,87.53
2018-01-22T01:31:37.660Z,87.62
2018-01-22T01:32:41.728Z,87.78
2018-01-22T01:33:45.784Z,87.61
2018-01-22T01:34:50.161Z,87.62
2018-01-22T01:35:54.400Z,87.50
2018-01-22T01:36:58.468Z,87.33
2018-01-22T01:38:02.541Z,87.25
2018-01-22T01:39:07.064Z,87.30
2018-01-22T01:40:11.204Z,87.08
2018-01-22T01:41:15.299Z,87.27
2018-01-22T01:42:20.184Z,87.19
2018-01-22T01:43:24.379Z,86.75
2018-01-22T01:44:28.550Z,87.00
2018-01-22T01:45:32.913Z,87.21
2018-01-22T01:46:37.105Z,87.37
2018-01-22T01:47:41.585Z,87.34
2018-01-22T01:48:54.347Z,87.29
2018-01-22T01:49:58.426Z,87.50
2018-01-22T01:51:02.480Z,87.30
2018-01-22T01:52:06.648Z,87.18
2018-01-22T01:53:10.747Z,87.41
2018-01-22T01:54:15.259Z,87.32
2018-01-22T01:55:19.421Z,87.47
2018-01-22T01:56:24.147Z,87.05
2018-01-22T01:57:28.332Z,87.14
2018-01-22T01:58:33.295Z,87.00
2018-01-22T01:59:37.499Z,87.18
2018-01-22T02:00:42.204Z,87.02
2018-01-22T02:01:46.378Z,86.80
2018-01-22T02:02:50.508Z,86.88
2018-01-22T02:03:54.715Z,86.92
2018-01-22T02:04:58.789Z,87.05
2018-01-22T02:06:02.892Z,86.96
2018-01-22T02:07:07.402Z,86.83
2018-01-22T02:08:11.703Z,86.75
2018-01-22T02:09:15.814Z,86.85
2018-01-22T02:10:19.897Z,86.67
2018-01-22T02:11:24.074Z,86.50
2018-01-22T02:12:28.247Z,86.31
2018-01-22T02:13:34.284Z,86.72
2018-01-22T02:14:38.381Z,86.95
2018-01-22T02:15:43.006Z,87.21
2018-01-22T02:16:47.125Z,87.23
2018-01-22T02:17:51.235Z,87.30
2018-01-22T02:18:55.328Z,87.14
2018-01-22T02:19:59.815Z,87.19
2018-01-22T02:21:03.916Z,87.41
2018-01-22T02:22:08.102Z,87.00
2018-01-22T02:23:12.225Z,87.04
2018-01-22T02:24:16.433Z,87.12
2018-01-22T02:25:20.563Z,87.36
2018-01-22T02:26:24.732Z,87.09
2018-01-22T02:27:28.807Z,87.16
2018-01-22T02:28:32.881Z,87.28
2018-01-22T02:29:36.977Z,86.97
2018-01-22T02:30:41.451Z,86.94
2018-01-22T02:31:45.936Z,86.86
2018-01-22T02:32:50.042Z,86.91
2018-01-22T02:33:54.123Z,86.92
2018-01-22T02:34:58.235Z,86.48
2018-01-22T02:36:02.389Z,86.09
2018-01-22T02:37:06.574Z,85.99
2018-01-22T02:38:11.000Z,86.45
2018-01-22T02:39:15.093Z,86.17
2018-01-22T02:40:19.186Z,85.89
2018-01-22T02:41:23.380Z,86.10
2018-01-22T02:42:27.491Z,85.97
2018-01-22T02:43:32.354Z,85.67
2018-01-22T02:44:36.893Z,85.70
2018-01-22T02:45:41.237Z,85.92
2018-01-22T02:46:45.324Z,85.85
2018-01-22T02:47:49.525Z,85.57
2018-01-22T02:48:53.643Z,85.61
2018-01-22T02:49:57.717Z,85.30
2018-01-22T02:51:02.108Z,84.82
2018-01-22T02:52:06.183Z,84.99
2018-01-22T02:53:10.396Z,84.98
2018-01-22T02:54:14.913Z,85.15
2018-01-22T02:55:18.968Z,84.93
2018-01-22T02:56:24.360Z,84.85
2018-01-22T02:57:28.453Z,84.45
2018-01-22T02:58:32.657Z,84.64
2018-01-22T02:59:36.728Z,84.57
2018-01-22T03:00:41.940Z,84.70
2018-01-22T03:01:46.135Z,84.75
2018-01-22T03:02:50.249Z,84.61
2018-01-22T03:03:54.718Z,84.67
2018-01-22T03:04:58.904Z,84.32
2018-01-22T03:06:03.005Z,84.29
2018-01-22T03:07:07.183Z,84.23
2018-01-22T03:08:11.238Z,83.88
2018-01-22T03:09:15.324Z,84.06
2018-01-22T03:10:19.840Z,84.05
2018-01-22T03:11:24.073Z,84.11
2018-01-22T03:12:28.276Z,84.32
2018-01-22T03:13:32.361Z,84.03
2018-01-22T03:14:36.476Z,84.10
2018-01-22T03:15:41.040Z,83.19
2018-01-22T03:16:45.435Z,83.16
2018-01-22T03:17:49.627Z,83.36
2018-01-22T03:18:53.769Z,83.77
2018-01-22T03:19:57.881Z,83.44
2018-01-22T03:21:01.994Z,83.00
2018-01-22T03:22:06.091Z,83.16
2018-01-22T03:23:10.604Z,83.32
2018-01-22T03:24:14.725Z,83.33
2018-01-22T03:25:18.845Z,83.19
2018-01-22T03:26:23.906Z,83.27
2018-01-22T03:27:28.089Z,82.57
2018-01-22T03:28:32.227Z,82.74
2018-01-22T03:29:36.635Z,82.70
2018-01-22T03:30:40.996Z,82.96
2018-01-22T03:31:45.105Z,82.57
2018-01-22T03:32:49.153Z,82.76
2018-01-22T03:33:53.254Z,82.81
2018-01-22T03:34:57.395Z,83.00
2018-01-22T03:36:01.748Z,82.79
2018-01-22T03:37:05.873Z,82.83
2018-01-22T03:38:09.942Z,83.17
2018-01-22T03:39:14.155Z,83.30
2018-01-22T03:40:18.279Z,83.54
2018-01-22T03:41:22.998Z,83.30
2018-01-22T03:42:27.091Z,83.54
2018-01-22T03:43:32.070Z,83.56
2018-01-22T03:44:36.693Z,83.67
2018-01-22T03:45:41.129Z,83.36
2018-01-22T03:46:45.262Z,83.35
2018-01-22T03:47:49.357Z,83.54
2018-01-22T03:48:53.776Z,83.62
2018-01-22T03:49:57.884Z,83.47
2018-01-22T03:51:02.073Z,83.36
2018-01-22T03:52:06.170Z,83.40
2018-01-22T03:53:10.236Z,83.33
2018-01-22T03:54:14.435Z,83.44
2018-01-22T03:55:18.856Z,83.11
2018-01-22T03:56:23.755Z,83.37
2018-01-22T03:57:27.868Z,83.26
2018-01-22T03:58:31.954Z,82.71
2018-01-22T03:59:36.077Z,83.08
2018-01-22T04:00:40.412Z,83.25
2018-01-22T04:01:44.891Z,83.09
2018-01-22T04:02:48.978Z,83.46
2018-01-22T04:03:53.057Z,83.66
2018-01-22T04:04:57.179Z,83.50
2018-01-22T04:06:01.268Z,83.66
2018-01-22T04:07:06.976Z,83.78
2018-01-22T04:08:11.110Z,83.89
2018-01-22T04:09:15.247Z,84.14
2018-01-22T04:10:19.406Z,84.09
2018-01-22T04:11:23.514Z,83.84
2018-01-22T04:12:28.588Z,83.82
2018-01-22T04:13:32.663Z,83.95
2018-01-22T04:14:36.779Z,83.61
2018-01-22T04:15:41.112Z,83.33
2018-01-22T04:16:45.463Z,83.86
2018-01-22T04:17:49.615Z,84.02
2018-01-22T04:18:53.727Z,83.93
2018-01-22T04:19:58.129Z,83.90
2018-01-22T04:21:02.205Z,84.17
2018-01-22T04:22:07.381Z,84.46
2018-01-22T04:23:11.513Z,84.56
2018-01-22T04:24:16.128Z,84.84
2018-01-22T04:25:20.218Z,84.86
2018-01-22T04:26:24.276Z,85.27
2018-01-22T04:27:29.396Z,85.33
2018-01-22T04:28:34.623Z,85.42
2018-01-22T04:29:38.810Z,85.83
2018-01-22T04:30:43.353Z,85.64
2018-01-22T04:31:47.783Z,85.48
2018-01-22T04:32:51.951Z,86.20
2018-01-22T04:33:56.077Z,86.10
2018-01-22T04:35:00.196Z,86.09
2018-01-22T04:36:04.370Z,85.96
2018-01-22T04:37:08.541Z,86.17
2018-01-22T04:38:12.717Z,86.22
2018-01-22T04:39:16.840Z,86.38
2018-01-22T04:40:21.601Z,86.56
2018-01-22T04:41:25.769Z,86.69
2018-01-22T04:42:29.882Z,86.72
2018-01-22T04:43:33.961Z,86.66
2018-01-22T04:44:39.238Z,86.63
2018-01-22T04:45:43.584Z,86.68
2018-01-22T04:46:47.759Z,86.95
2018-01-22T04:47:51.936Z,87.32
2018-01-22T04:48:55.988Z,87.42
2018-01-22T04:50:00.089Z,87.81
2018-01-22T04:51:04.585Z,87.83
2018-01-22T04:52:08.676Z,88.10
2018-01-22T04:53:12.708Z,88.33
2018-01-22T04:54:16.792Z,88.48
2018-01-22T04:55:20.989Z,88.30
2018-01-22T04:56:25.068Z,88.37
2018-01-22T04:57:29.560Z,88.31
2018-01-22T04:58:33.660Z,88.28
2018-01-22T04:59:37.795Z,88.18
2018-01-22T05:00:42.185Z,88.23
2018-01-22T05:01:46.331Z,88.28
2018-01-22T05:02:50.441Z,88.30
2018-01-22T05:03:55.012Z,88.63
2018-01-22T05:04:59.220Z,88.54
2018-01-22T05:06:03.336Z,88.62
2018-01-22T05:07:07.442Z,88.62
2018-01-22T05:08:11.565Z,88.64
2018-01-22T05:09:15.757Z,88.67
2018-01-22T05:10:20.177Z,88.71
2018-01-22T05:11:24.827Z,88.63
2018-01-22T05:12:28.912Z,88.59
2018-01-22T05:13:33.087Z,88.54
2018-01-22T05:14:37.242Z,88.51
2018-01-22T05:15:41.629Z,88.07
2018-01-22T05:16:46.281Z,87.83
2018-01-22T05:17:50.381Z,87.89
2018-01-22T05:18:56.424Z,88.23
2018-01-22T05:20:00.561Z,88.46
2018-01-22T05:21:04.641Z,88.62
2018-01-22T05:22:08.719Z,88.70
2018-01-22T05:23:12.897Z,88.84
2018-01-22T05:24:17.060Z,88.76
2018-01-22T05:25:21.171Z,88.87
2018-01-22T05:26:25.357Z,88.93
2018-01-22T05:27:29.469Z,88.99
2018-01-22T05:28:34.337Z,89.15
2018-01-22T05:29:38.866Z,89.41
2018-01-22T05:30:43.329Z,89.66
2018-01-22T05:31:47.460Z,89.68
2018-01-22T05:32:51.561Z,89.70
2018-01-22T05:33:55.719Z,89.63
2018-01-22T05:34:59.828Z,89.46
2018-01-22T05:36:04.378Z,89.53
2018-01-22T05:37:08.473Z,89.62
2018-01-22T05:38:12.592Z,89.98
2018-01-22T05:39:16.893Z,90.10
2018-01-22T05:40:21.055Z,90.18
2018-01-22T05:41:25.158Z,90.16
2018-01-22T05:42:30.209Z,90.18
2018-01-22T05:43:34.385Z,90.24
2018-01-22T05:44:38.449Z,90.16
2018-01-22T05:45:42.872Z,90.24
2018-01-22T05:46:46.988Z,90.29
2018-01-22T05:47:51.076Z,90.20
2018-01-22T05:48:55.194Z,89.78
2018-01-22T05:49:59.249Z,89.70
2018-01-22T05:51:04.174Z,89.84
2018-01-22T05:52:08.278Z,90.02
2018-01-22T05:53:12.392Z,90.11
2018-01-22T05:54:16.477Z,90.27
2018-01-22T05:55:20.893Z,90.32
2018-01-22T05:56:25.100Z,90.15
2018-01-22T05:57:29.260Z,90.27
2018-01-22T05:58:33.480Z,90.17
2018-01-22T05:59:38.494Z,90.06
2018-01-22T06:00:43.200Z,90.17
2018-01-22T06:01:47.715Z,89.96
2018-01-22T06:02:51.839Z,90.02
2018-01-22T06:03:56.065Z,90.01
2018-01-22T06:05:00.148Z,90.10
2018-01-22T06:06:04.280Z,89.92
2018-01-22T06:07:08.413Z,89.88
2018-01-22T06:08:12.832Z,89.86
2018-01-22T06:09:17.010Z,89.98
2018-01-22T06:10:21.566Z,90.22
2018-01-22T06:11:25.707Z,90.22
2018-01-22T06:12:29.883Z,90.28
2018-01-22T06:13:34.082Z,90.31
2018-01-22T06:14:38.642Z,90.24
2018-01-22T06:15:43.113Z,90.30
2018-01-22T06:16:47.280Z,90.30
2018-01-22T06:17:51.597Z,90.22
2018-01-22T06:18:55.713Z,90.14
2018-01-22T06:19:59.820Z,90.35
2018-01-22T06:21:04.888Z,90.51
2018-01-22T06:22:09.896Z,90.52
2018-01-22T06:23:14.005Z,90.81
2018-01-22T06:24:18.141Z,90.89
2018-01-22T06:25:22.333Z,90.79
2018-01-22T06:26:27.022Z,90.88
2018-01-22T06:27:31.443Z,90.69
2018-01-22T06:28:35.621Z,90.75
2018-01-22T06:29:39.824Z,90.78
2018-01-22T06:30:43.912Z,90.75
2018-01-22T06:31:48.624Z,91.06
2018-01-22T06:32:52.927Z,91.16
2018-01-22T06:33:57.185Z,91.01
2018-01-22T06:35:01.432Z,91.13
2018-01-22T06:36:05.861Z,91.28
2018-01-22T06:37:10.326Z,91.38
2018-01-22T06:38:14.469Z,91.18
2018-01-22T06:39:19.111Z,91.35
2018-01-22T06:40:23.493Z,91.29
2018-01-22T06:41:28.678Z,91.31
2018-01-22T06:42:32.828Z,91.31
2018-01-22T06:43:38.463Z,91.35
2018-01-22T06:44:42.682Z,91.51
2018-01-22T06:45:47.402Z,91.48
2018-01-22T06:46:51.537Z,91.37
2018-01-22T06:47:55.662Z,91.51
2018-01-22T06:48:59.749Z,91.26
2018-01-22T06:50:03.953Z,91.10
2018-01-22T06:51:08.057Z,91.09
2018-01-22T06:52:12.596Z,91.08
2018-01-22T06:53:16.674Z,90.81
2018-01-22T06:54:20.929Z,91.08
2018-01-22T06:55:25.014Z,91.36
2018-01-22T06:56:30.093Z,91.50
2018-01-22T06:57:34.180Z,91.50
2018-01-22T06:58:38.669Z,91.30
2018-01-22T06:59:42.903Z,91.54
2018-01-22T07:00:47.287Z,91.67
2018-01-22T07:01:51.478Z,91.44
2018-01-22T07:02:55.546Z,91.54
2018-01-22T07:03:59.640Z,91.44
2018-01-22T07:05:04.161Z,91.44
2018-01-22T07:06:08.347Z,91.28
2018-01-22T07:07:12.541Z,91.17
2018-01-22T07:08:17.547Z,91.05
2018-01-22T07:09:21.673Z,91.35
2018-01-22T07:10:26.502Z,91.40
2018-01-22T07:11:31.216Z,91.31
2018-01-22T07:12:36.221Z,91.32
2018-01-22T07:13:40.400Z,91.12
2018-01-22T07:14:44.480Z,91.20
2018-01-22T07:15:48.997Z,91.37
2018-01-22T07:16:53.230Z,91.09
2018-01-22T07:17:57.329Z,91.11
2018-01-22T07:19:01.544Z,90.79
2018-01-22T07:20:06.672Z,90.71
2018-01-22T07:21:10.793Z,90.94
2018-01-22T07:22:14.921Z,90.43
2018-01-22T07:23:19.329Z,90.41
2018-01-22T07:24:23.530Z,90.11
2018-01-22T07:25:27.664Z,90.13
2018-01-22T07:26:31.925Z,89.61
2018-01-22T07:27:36.864Z,89.82
2018-01-22T07:28:41.011Z,90.25
2018-01-22T07:29:45.320Z,90.34
2018-01-22T07:30:49.728Z,90.41
2018-01-22T07:31:53.823Z,90.06
2018-01-22T07:32:58.029Z,90.02
2018-01-22T07:34:02.108Z,89.96
2018-01-22T07:35:06.251Z,89.84
2018-01-22T07:36:10.693Z,89.85
2018-01-22T07:37:14.802Z,89.63
2018-01-22T07:38:18.959Z,89.59
2018-01-22T07:39:23.076Z,89.88
2018-01-22T07:40:28.235Z,89.67
2018-01-22T07:41:33.457Z,90.02
2018-01-22T07:42:38.853Z,90.15
2018-01-22T07:43:42.976Z,90.32
2018-01-22T07:44:47.099Z,90.27
2018-01-22T07:45:51.545Z,90.35
2018-01-22T07:46:55.685Z,90.35
2018-01-22T07:48:00.814Z,90.22
2018-01-22T07:49:05.229Z,90.27
2018-01-22T07:50:09.461Z,90.10
2018-01-22T07:51:13.587Z,90.07
2018-01-22T07:52:18.655Z,90.16
2018-01-22T07:53:22.755Z,90.20
2018-01-22T07:54:26.831Z,90.04
2018-01-22T07:55:31.591Z,90.19
2018-01-22T07:56:35.652Z,90.53
2018-01-22T07:57:39.932Z,90.61
2018-01-22T07:58:44.053Z,90.64
2018-01-22T07:59:48.493Z,90.53
2018-01-22T08:00:52.893Z,90.78
2018-01-22T08:01:57.000Z,90.55
2018-01-22T08:03:01.218Z,90.70
2018-01-22T08:04:05.403Z,90.65
2018-01-22T08:05:09.493Z,90.56
2018-01-22T08:06:13.617Z,90.51
2018-01-22T08:07:18.128Z,90.35
2018-01-22T08:08:22.407Z,90.54
2018-01-22T08:09:26.488Z,90.35
2018-01-22T08:10:30.661Z,90.20
2018-01-22T08:11:34.749Z,90.10
2018-01-22T08:12:39.534Z,90.38
2018-01-22T08:13:44.057Z,90.40
2018-01-22T08:14:48.154Z,90.20
2018-01-22T08:15:52.304Z,89.99
2018-01-22T08:16:56.775Z,90.19
2018-01-22T08:18:01.729Z,90.20
2018-01-22T08:19:06.042Z,90.16
2018-01-22T08:20:10.186Z,90.02
2018-01-22T08:21:14.405Z,90.10
2018-01-22T08:22:18.576Z,90.15
2018-01-22T08:23:22.899Z,89.65
2018-01-22T08:24:27.028Z,89.77
2018-01-22T08:25:31.132Z,90.00
2018-01-22T08:26:35.548Z,89.81
2018-01-22T08:27:39.624Z,89.69
2018-01-22T08:28:43.784Z,89.71
2018-01-22T08:29:48.037Z,89.69
2018-01-22T08:30:52.226Z,89.67
2018-01-22T08:31:56.438Z,90.01
2018-01-22T08:33:00.824Z,90.06
2018-01-22T08:34:04.953Z,89.82
2018-01-22T08:35:09.090Z,89.86
2018-01-22T08:36:13.326Z,89.97
2018-01-22T08:37:17.747Z,89.98
2018-01-22T08:38:21.971Z,89.70
2018-01-22T08:39:26.960Z,89.54
2018-01-22T08:40:31.173Z,89.78
2018-01-22T08:41:36.163Z,89.63
2018-01-22T08:42:40.281Z,89.34
2018-01-22T08:43:44.407Z,89.54
2018-01-22T08:44:48.605Z,89.82
2018-01-22T08:45:53.094Z,89.94
2018-01-22T08:46:57.532Z,89.98
2018-01-22T08:48:01.978Z,89.97
2018-01-22T08:49:06.224Z,90.05
2018-01-22T08:50:10.391Z,90.07
2018-01-22T08:51:14.544Z,90.25
2018-01-22T08:52:19.110Z,90.18
2018-01-22T08:53:23.277Z,90.07
2018-01-22T08:54:28.528Z,90.23
2018-01-22T08:55:33.863Z,90.28
2018-01-22T08:56:38.724Z,90.08
2018-01-22T08:57:42.825Z,89.94
2018-01-22T08:58:47.308Z,89.88
2018-01-22T08:59:51.465Z,89.72
2018-01-22T09:00:55.956Z,89.97
2018-01-22T09:02:00.093Z,89.75
2018-01-22T09:03:04.203Z,89.86
2018-01-22T09:04:08.415Z,89.59
2018-01-22T09:05:12.878Z,89.62
2018-01-22T09:06:17.040Z,89.61
2018-01-22T09:07:21.278Z,89.75
2018-01-22T09:08:25.389Z,89.35
2018-01-22T09:09:29.604Z,89.26
2018-01-22T09:10:34.525Z,89.62
2018-01-22T09:11:39.290Z,89.60
2018-01-22T09:12:43.760Z,89.42
2018-01-22T09:13:47.961Z,89.62
2018-01-22T09:14:52.040Z,89.78
2018-01-22T09:15:56.354Z,89.87
2018-01-22T09:17:01.085Z,89.87
2018-01-22T09:18:05.332Z,89.76
2018-01-22T09:19:09.461Z,89.93
2018-01-22T09:20:13.673Z,89.86
2018-01-22T09:21:17.775Z,89.78
2018-01-22T09:22:21.939Z,89.63
2018-01-22T09:23:26.394Z,89.43
2018-01-22T09:24:31.335Z,89.52
2018-01-22T09:25:35.500Z,89.63
2018-01-22T09:26:40.439Z,89.09
2018-01-22T09:27:44.647Z,88.68
2018-01-22T09:28:48.884Z,89.06
2018-01-22T09:29:53.410Z,88.91
2018-01-22T09:30:57.726Z,89.40
2018-01-22T09:32:02.239Z,89.71
2018-01-22T09:33:06.449Z,89.42
2018-01-22T09:34:10.679Z,89.69
2018-01-22T09:35:14.780Z,89.81
2018-01-22T09:36:18.903Z,89.98
2018-01-22T09:37:23.147Z,90.04
2018-01-22T09:38:27.356Z,90.09
2018-01-22T09:39:31.669Z,90.15
2018-01-22T09:40:35.808Z,90.24
2018-01-22T09:41:39.937Z,89.76
2018-01-22T09:42:44.483Z,89.68
2018-01-22T09:43:48.724Z,89.63
2018-01-22T09:44:52.878Z,89.70
2018-01-22T09:45:57.453Z,89.74
2018-01-22T09:47:01.948Z,89.73
2018-01-22T09:48:06.096Z,89.49
2018-01-22T09:49:10.584Z,89.17
2018-01-22T09:50:14.769Z,89.06
2018-01-22T09:51:18.901Z,89.51
2018-01-22T09:52:23.080Z,89.50
2018-01-22T09:53:28.154Z,89.59
2018-01-22T09:54:32.248Z,89.07
2018-01-22T09:55:36.757Z,89.10
2018-01-22T09:56:40.834Z,89.14
2018-01-22T09:57:45.000Z,89.47
2018-01-22T09:58:49.232Z,89.36
2018-01-22T09:59:53.329Z,89.08
2018-01-22T10:00:57.723Z,89.09
2018-01-22T10:02:02.401Z,89.15
2018-01-22T10:03:06.587Z,89.11
2018-01-22T10:04:11.332Z,89.08
2018-01-22T10:05:15.448Z,88.80
2018-01-22T10:06:19.588Z,88.72
2018-01-22T10:07:23.778Z,88.41
2018-01-22T10:08:28.214Z,88.37
2018-01-22T10:09:32.413Z,88.54
2018-01-22T10:10:37.444Z,87.97
2018-01-22T10:11:41.561Z,88.18
2018-01-22T10:12:45.791Z,88.49
2018-01-22T10:13:49.930Z,88.19
2018-01-22T10:14:54.412Z,88.24
2018-01-22T10:15:58.853Z,88.30
2018-01-22T10:17:03.008Z,88.63
2018-01-22T10:18:07.289Z,88.63
2018-01-22T10:19:11.443Z,88.88
2018-01-22T10:20:15.628Z,88.90
2018-01-22T10:21:19.839Z,88.81
2018-01-22T10:22:24.004Z,88.45
2018-01-22T10:23:28.971Z,88.39
2018-01-22T10:24:33.327Z,88.32
2018-01-22T10:25:38.369Z,87.75
2018-01-22T10:26:42.460Z,86.67
2018-01-22T10:27:46.704Z,86.79
2018-01-22T10:28:50.828Z,87.23
2018-01-22T10:29:55.044Z,87.86
2018-01-22T10:30:59.311Z,87.55
2018-01-22T10:32:03.477Z,87.35
2018-01-22T10:33:07.715Z,87.08
2018-01-22T10:34:11.818Z,86.80
2018-01-22T10:35:15.940Z,87.04
2018-01-22T10:36:20.939Z,87.03
2018-01-22T10:37:25.159Z,87.13
2018-01-22T10:38:30.285Z,86.63
2018-01-22T10:39:34.449Z,86.49
2018-01-22T10:40:39.529Z,86.76
2018-01-22T10:41:43.838Z,86.78
2018-01-22T10:42:48.060Z,86.65
2018-01-22T10:43:52.280Z,87.18
2018-01-22T10:44:56.801Z,87.16
2018-01-22T10:46:00.948Z,87.53
2018-01-22T10:47:05.177Z,87.54
2018-01-22T10:48:09.277Z,87.44
2018-01-22T10:49:13.445Z,87.79
2018-01-22T10:50:17.612Z,87.72
2018-01-22T10:51:22.005Z,87.87
2018-01-22T10:52:26.224Z,87.90
2018-01-22T10:53:30.346Z,87.80
2018-01-22T10:54:34.492Z,87.89
2018-01-22T10:55:39.310Z,87.88
2018-01-22T10:56:43.930Z,87.56
2018-01-22T10:57:48.158Z,87.92
2018-01-22T10:58:52.244Z,87.86
2018-01-22T10:59:56.500Z,87.69
2018-01-22T11:01:01.774Z,87.20
2018-01-22T11:02:06.012Z,87.54
2018-01-22T11:03:10.485Z,87.48
2018-01-22T11:04:14.673Z,87.23
2018-01-22T11:05:18.888Z,86.92
2018-01-22T11:06:23.060Z,86.84
2018-01-22T11:07:27.231Z,86.74
2018-01-22T11:08:31.363Z,86.69
2018-01-22T11:09:35.883Z,86.65
2018-01-22T11:10:40.022Z,86.72
2018-01-22T11:11:44.257Z,86.89
2018-01-22T11:12:48.358Z,86.64
2018-01-22T11:13:52.478Z,86.45
2018-01-22T11:14:56.709Z,86.80
2018-01-22T11:16:05.177Z,86.62
2018-01-22T11:17:09.412Z,86.56
2018-01-22T11:18:13.674Z,86.53
2018-01-22T11:19:17.788Z,86.64
2018-01-22T11:20:21.905Z,86.62
2018-01-22T11:21:26.045Z,86.05
2018-01-22T11:22:30.289Z,86.08
2018-01-22T11:23:34.410Z,86.61
2018-01-22T11:24:39.664Z,87.11
2018-01-22T11:25:43.790Z,87.83
2018-01-22T11:26:48.098Z,88.28
2018-01-22T11:27:52.317Z,87.88
2018-01-22T11:28:56.474Z,87.59
2018-01-22T11:30:00.602Z,87.34
2018-01-22T11:31:04.747Z,87.55
2018-01-22T11:32:09.330Z,87.48
2018-01-22T11:33:13.571Z,87.45
2018-01-22T11:34:17.726Z,87.05
2018-01-22T11:35:21.982Z,86.81
2018-01-22T11:36:26.084Z,87.03
2018-01-22T11:37:30.221Z,87.63
2018-01-22T11:38:34.700Z,87.81
2018-01-22T11:39:38.864Z,88.44
2018-01-22T11:40:43.106Z,88.92
2018-01-22T11:41:47.247Z,88.15
2018-01-22T11:42:51.439Z,87.00
2018-01-22T11:43:55.764Z,86.51
2018-01-22T11:45:00.260Z,86.40
2018-01-22T11:46:04.473Z,86.39
2018-01-22T11:47:08.690Z,86.30
2018-01-22T11:48:12.956Z,86.72
2018-01-22T11:49:17.188Z,87.20
2018-01-22T11:50:21.348Z,87.72
2018-01-22T11:51:25.768Z,87.64
2018-01-22T11:52:31.460Z,87.46
2018-01-22T11:53:36.555Z,87.63
2018-01-22T11:54:40.843Z,87.99
2018-01-22T11:55:44.970Z,87.88
2018-01-22T11:56:49.242Z,87.59
2018-01-22T11:57:53.382Z,87.63
2018-01-22T11:58:57.489Z,87.02
2018-01-22T12:00:01.717Z,86.82
2018-01-22T12:01:06.404Z,86.59
2018-01-22T12:02:10.497Z,86.55
2018-01-22T12:03:14.969Z,87.18
2018-01-22T12:04:19.202Z,87.65
2018-01-22T12:05:23.401Z,87.89
2018-01-22T12:06:28.210Z,88.42
2018-01-22T12:07:32.350Z,87.48
2018-01-22T12:08:37.477Z,86.61
2018-01-22T12:09:41.738Z,86.55
2018-01-22T12:10:46.017Z,86.54
2018-01-22T12:11:50.158Z,86.19
2018-01-22T12:12:54.390Z,86.46
2018-01-22T12:13:58.601Z,86.56
2018-01-22T12:15:05.459Z,87.19
2018-01-22T12:16:10.203Z,87.57
2018-01-22T12:17:14.753Z,86.74
2018-01-22T12:18:18.874Z,86.34
2018-01-22T12:19:23.055Z,86.22
2018-01-22T12:20:28.352Z,86.36
2018-01-22T12:21:32.810Z,85.61
2018-01-22T12:22:37.861Z,85.95
2018-01-22T12:23:42.124Z,86.51
2018-01-22T12:24:46.348Z,86.88
2018-01-22T12:25:50.490Z,87.61
2018-01-22T12:26:54.581Z,87.52
2018-01-22T12:27:58.708Z,87.42
2018-01-22T12:29:02.835Z,87.00
2018-01-22T12:30:07.531Z,87.17
2018-01-22T12:31:11.613Z,86.99
2018-01-22T12:32:15.732Z,87.27
2018-01-22T12:33:19.939Z,87.66
2018-01-22T12:34:24.372Z,88.08
2018-01-22T12:35:28.508Z,87.81
2018-01-22T12:36:32.612Z,87.64
2018-01-22T12:37:36.808Z,87.70
2018-01-22T12:38:40.957Z,88.09
2018-01-22T12:39:45.048Z,87.91
2018-01-22T12:40:49.554Z,87.83
2018-01-22T12:41:53.694Z,87.51
2018-01-22T12:42:57.861Z,87.00
2018-01-22T12:44:01.984Z,86.48
2018-01-22T12:45:07.493Z,86.20
2018-01-22T12:46:11.628Z,86.00
2018-01-22T12:47:16.101Z,85.70
2018-01-22T12:48:20.947Z,85.95
2018-01-22T12:49:25.054Z,86.01
2018-01-22T12:50:29.948Z,86.17
2018-01-22T12:51:34.060Z,86.58
2018-01-22T12:52:38.352Z,86.94
2018-01-22T12:53:42.788Z,86.92
2018-01-22T12:54:46.996Z,87.35
2018-01-22T12:55:51.172Z,87.39
2018-01-22T12:56:55.275Z,87.64
2018-01-22T12:57:59.521Z,87.73
2018-01-22T12:59:03.666Z,87.65
2018-01-22T13:00:08.230Z,87.70
2018-01-22T13:01:12.594Z,87.73
2018-01-22T13:02:17.046Z,87.54
2018-01-22T13:03:21.321Z,87.69
2018-01-22T13:04:25.673Z,87.62
2018-01-22T13:05:29.865Z,87.66
2018-01-22T13:06:34.377Z,87.67
2018-01-22T13:07:39.156Z,87.84
2018-01-22T13:08:43.383Z,88.08
2018-01-22T13:09:47.532Z,88.55
2018-01-22T13:10:51.651Z,88.49
2018-01-22T13:11:55.825Z,89.01
2018-01-22T13:13:00.061Z,89.31
2018-01-22T13:14:04.229Z,89.25
2018-01-22T13:15:08.395Z,88.79
2018-01-22T13:16:12.793Z,88.99
2018-01-22T13:17:17.061Z,89.13
2018-01-22T13:18:21.439Z,89.41
2018-01-22T13:19:25.602Z,89.54
2018-01-22T13:20:29.776Z,89.39
2018-01-22T13:21:33.939Z,89.33
2018-01-22T13:22:38.182Z,89.30
2018-01-22T13:23:42.380Z,89.57
2018-01-22T13:24:46.876Z,89.95
2018-01-22T13:25:51.116Z,89.65
2018-01-22T13:26:55.407Z,89.93
2018-01-22T13:27:59.596Z,90.06
2018-01-22T13:29:03.849Z,89.87
2018-01-22T13:30:08.114Z,90.19
2018-01-22T13:31:12.694Z,90.44
2018-01-22T13:32:16.876Z,90.66
2018-01-22T13:33:21.145Z,90.94
2018-01-22T13:34:25.493Z,90.40
2018-01-22T13:35:30.672Z,90.38
2018-01-22T13:36:36.295Z,90.49
2018-01-22T13:37:41.076Z,90.39
2018-01-22T13:38:45.219Z,90.12
2018-01-22T13:39:50.377Z,90.15
2018-01-22T13:40:58.533Z,90.31
2018-01-22T13:42:02.709Z,90.50
2018-01-22T13:43:06.950Z,90.59
2018-01-22T13:44:11.521Z,90.47
2018-01-22T13:45:16.253Z,89.44
2018-01-22T13:46:20.400Z,89.44
2018-01-22T13:47:24.643Z,89.28
2018-01-22T13:48:28.998Z,89.30